Main page
METAR-TAF:

METAR-TAF

Airports :

Ivato International Airport

Antananarivo, Madagascar

latitude: 18-48S, longitude: 047-29E, elevation: 1279 m

Current weather observation

The report was made 23 minutes ago, at 04:00 UTC
Calm wind
Temperature 18°C
Humidity 88%
Pressure 1021 hPa
Visibility: 5000 m
Few clouds at a height of 2000 ft
mist

METAR: FMMI 170400Z 00000KT 5000 BR FEW020 18/16 Q1021 BECMG NSW

Time: 07:23 (04:23 UTC)

Forecast

The report was made 5 hours and 23 minutes ago, at 23:00 UTC
Forecast valid from 17 at 00 UTC to 18 at 06 UTC
Wind 4 kt from variable directions
Visibility 10 km or more
Few clouds at a height of 2000 ft
Probability 40%
from 17 at 01 UTC to 17 at 05 UTC
Visibility: 0400 m
Broken clouds at a height of 400 ft
fog
Probability 30% :
Temporary
from 17 at 13 UTC to 17 at 18 UTC
Visibility: 4500 m
thunderstorm, rain

TAF: FMMI 162300Z 1700/1806 VRB04KT 9999 FEW020 PROB40 1701/1705 0400 FG BKN004 PROB30 TEMPO 1713/1718 4500 TSRA

Weather observations and forecasts of more than 4000 airports (METAR and TAF reports).

The available stations are represented by yellow and red dots on the map.

Hover mouse over dot to see the name of the station.

Then click to see weather observations and forecasts.

To change the map : click on the green buttons with a black cross to zoom in, on the green button with a dash to zoom out, or on the green arrows for adjacent maps.


METAR-TAF: